createdAt,value
2022-08-22T00:00:34.913Z,101672.56
2022-08-22T00:03:07.177Z,101649.19
2022-08-22T00:03:28.810Z,101661.88
2022-08-22T00:06:17.779Z,101666.34
2022-08-22T00:09:01.728Z,101661.91
2022-08-22T00:11:42.133Z,101658.34
2022-08-22T00:14:20.347Z,101658.34
2022-08-22T00:16:58.703Z,101658.34
2022-08-22T00:19:45.576Z,101661.00
2022-08-22T00:22:23.475Z,101659.19
2022-08-22T00:25:00.621Z,101659.19
2022-08-22T00:27:36.180Z,101660.09
2022-08-22T00:30:10.719Z,101668.06
2022-08-22T00:32:45.944Z,101663.63
2022-08-22T00:35:26.432Z,101664.53
2022-08-22T00:38:05.507Z,101661.88
2022-08-22T00:40:55.292Z,101661.81
2022-08-22T00:43:57.432Z,101662.72
2022-08-22T00:46:44.986Z,101661.81
2022-08-22T00:49:32.895Z,101668.94
2022-08-22T00:52:42.391Z,101662.72
2022-08-22T00:55:39.475Z,101666.28
2022-08-22T00:58:39.257Z,101672.50
2022-08-22T01:01:12.356Z,101664.47
2022-08-22T01:04:01.059Z,101668.91
2022-08-22T01:06:42.813Z,101674.22
2022-08-22T01:09:31.348Z,101668.91
2022-08-22T01:12:25.624Z,101669.78
2022-08-22T01:15:01.127Z,101667.13
2022-08-22T01:18:04.251Z,101675.97
2022-08-22T01:21:20.763Z,101675.09
2022-08-22T01:24:25.937Z,101673.25
2022-08-22T01:27:28.555Z,101676.78
2022-08-22T01:30:20.132Z,101681.19
2022-08-22T01:33:26.188Z,101673.22
2022-08-22T01:36:21.500Z,101673.19
2022-08-22T01:39:10.967Z,101676.72
2022-08-22T01:42:05.226Z,101681.13
2022-08-22T01:45:07.843Z,101683.75
2022-08-22T01:47:43.216Z,101686.38
2022-08-22T01:50:24.085Z,101693.53
2022-08-22T01:53:04.298Z,101693.50
2022-08-22T01:55:38.784Z,101692.56
2022-08-22T01:58:19.735Z,101691.69
2022-08-22T02:01:05.938Z,101698.75
2022-08-22T02:03:40.548Z,101698.69
2022-08-22T02:06:16.356Z,101703.13
2022-08-22T02:08:56.190Z,101700.41
2022-08-22T02:11:41.531Z,101692.38
2022-08-22T02:14:25.708Z,101698.56
2022-08-22T02:16:58.863Z,101700.34
2022-08-22T02:19:38.160Z,101689.59
2022-08-22T02:22:20.511Z,101692.28
2022-08-22T02:25:04.554Z,101698.50
2022-08-22T02:27:48.315Z,101694.00
2022-08-22T02:30:21.677Z,101686.91
2022-08-22T02:33:08.320Z,101689.53
2022-08-22T02:35:45.148Z,101682.38
2022-08-22T02:38:28.198Z,101685.06
2022-08-22T02:41:12.716Z,101680.56
2022-08-22T02:43:51.224Z,101680.53
2022-08-22T02:46:28.675Z,101680.50
2022-08-22T02:49:09.068Z,101674.28
2022-08-22T02:51:47.773Z,101672.47
2022-08-22T02:54:25.339Z,101679.56
2022-08-22T02:57:05.217Z,101675.97
2022-08-22T02:59:42.375Z,101679.50
2022-08-22T03:02:31.368Z,101675.94
2022-08-22T03:05:04.238Z,101674.13
2022-08-22T03:07:45.188Z,101675.88
2022-08-22T03:10:23.171Z,101680.28
2022-08-22T03:13:05.865Z,101672.28
2022-08-22T03:15:48.449Z,101675.78
2022-08-22T03:18:25.711Z,101674.84
2022-08-22T03:20:59.599Z,101665.00
2022-08-22T03:23:39.551Z,101674.78
2022-08-22T03:26:16.200Z,101665.84
2022-08-22T03:29:00.146Z,101672.91
2022-08-22T03:31:31.821Z,101664.00
2022-08-22T03:34:22.483Z,101669.28
2022-08-22T03:37:07.533Z,101668.34
2022-08-22T03:40:02.869Z,101662.97
2022-08-22T03:43:03.344Z,101668.25
2022-08-22T03:46:13.059Z,101661.94
2022-08-22T03:49:08.238Z,101660.13
2022-08-22T03:51:52.044Z,101659.22
2022-08-22T03:55:03.575Z,101664.47
2022-08-22T03:58:04.398Z,101667.97
2022-08-22T04:01:03.644Z,101665.31
2022-08-22T04:04:05.354Z,101665.22
2022-08-22T04:06:56.358Z,101664.31
2022-08-22T04:09:47.612Z,101664.25
2022-08-22T04:12:42.384Z,101661.56
2022-08-22T04:15:48.831Z,101664.19
2022-08-22T04:18:51.339Z,101661.47
2022-08-22T04:21:51.088Z,101668.53
2022-08-22T04:24:37.026Z,101666.75
2022-08-22T04:27:15.496Z,101676.47
2022-08-22T04:29:51.818Z,101672.03
2022-08-22T04:32:28.137Z,101675.53
2022-08-22T04:35:02.071Z,101684.38
2022-08-22T04:37:42.115Z,101686.16
2022-08-22T04:40:19.946Z,101693.22
2022-08-22T04:42:55.739Z,101687.00
2022-08-22T04:45:30.103Z,101683.41
2022-08-22T04:48:06.749Z,101690.50
2022-08-22T04:50:44.404Z,101687.84
2022-08-22T04:53:33.854Z,101688.81
2022-08-22T04:56:10.720Z,101687.97
2022-08-22T04:58:47.725Z,101689.75
2022-08-22T05:01:21.011Z,101691.53
2022-08-22T05:03:58.168Z,101689.81
2022-08-22T05:06:32.031Z,101697.00
2022-08-22T05:09:12.976Z,101692.59
2022-08-22T05:11:46.546Z,101694.41
2022-08-22T05:14:21.536Z,101699.84
2022-08-22T05:16:56.868Z,101697.41
2022-08-22T05:19:32.292Z,101708.31
2022-08-22T05:22:03.528Z,101701.47
2022-08-22T05:24:40.339Z,101707.03
2022-08-22T05:27:14.707Z,101709.78
2022-08-22T05:29:49.640Z,101708.00
2022-08-22T05:32:27.551Z,101715.06
2022-08-22T05:35:01.360Z,101715.06
2022-08-22T05:37:40.220Z,101709.75
2022-08-22T05:40:20.339Z,101711.53
2022-08-22T05:42:50.743Z,101718.66
2022-08-22T05:45:21.967Z,101710.72
2022-08-22T05:47:55.392Z,101710.78
2022-08-22T05:50:37.162Z,101713.56
2022-08-22T05:53:12.531Z,101714.53
2022-08-22T05:55:58.219Z,101712.91
2022-08-22T05:58:51.216Z,101718.38
2022-08-22T06:01:30.366Z,101722.97
2022-08-22T06:04:06.999Z,101713.50
2022-08-22T06:06:42.834Z,101714.69
2022-08-22T06:09:20.774Z,101718.59
2022-08-22T06:12:00.742Z,101720.75
2022-08-22T06:14:36.119Z,101727.25
2022-08-22T06:17:14.948Z,101730.09
2022-08-22T06:19:49.702Z,101733.78
2022-08-22T06:22:23.859Z,101735.75
2022-08-22T06:24:57.655Z,101718.88
2022-08-22T06:27:32.043Z,101723.41
2022-08-22T06:30:04.309Z,101732.41
2022-08-22T06:32:59.051Z,101730.63
2022-08-22T06:35:52.079Z,101736.88
2022-08-22T06:38:23.173Z,101728.88
2022-08-22T06:40:56.199Z,101736.94
2022-08-22T06:43:29.364Z,101718.22
2022-08-22T06:45:59.474Z,101736.97
2022-08-22T06:48:29.901Z,101734.28
2022-08-22T06:51:01.666Z,101738.81
2022-08-22T06:53:42.344Z,101730.81
2022-08-22T06:56:24.009Z,101732.59
2022-08-22T06:59:02.139Z,101731.72
2022-08-22T07:01:36.653Z,101728.13
2022-08-22T07:04:09.023Z,101732.47
2022-08-22T07:06:41.616Z,101734.22
2022-08-22T07:09:22.308Z,101727.97
2022-08-22T07:11:53.269Z,101732.41
2022-08-22T07:14:33.096Z,101727.94
2022-08-22T07:17:05.426Z,101728.78
2022-08-22T07:19:38.613Z,101726.09
2022-08-22T07:22:17.618Z,101727.00
2022-08-22T07:24:53.634Z,101733.22
2022-08-22T07:27:39.160Z,101726.97
2022-08-22T07:30:15.617Z,101727.88
2022-08-22T07:33:25.178Z,101724.31
2022-08-22T07:35:55.964Z,101724.34
2022-08-22T07:38:35.436Z,101731.50
2022-08-22T07:41:13.135Z,101726.16
2022-08-22T07:43:47.811Z,101735.09
2022-08-22T07:46:31.549Z,101730.66
2022-08-22T07:49:12.058Z,101733.34
2022-08-22T07:51:46.800Z,101732.44
2022-08-22T07:54:21.261Z,101728.91
2022-08-22T07:56:59.767Z,101736.03
2022-08-22T07:59:31.979Z,101734.28
2022-08-22T08:02:09.896Z,101731.59
2022-08-22T08:04:41.686Z,101729.78
2022-08-22T08:07:14.543Z,101736.06
2022-08-22T08:09:48.763Z,101734.28
2022-08-22T08:12:22.133Z,101736.09
2022-08-22T08:14:56.810Z,101728.09
2022-08-22T08:17:32.563Z,101731.69
2022-08-22T08:20:08.862Z,101731.72
2022-08-22T08:22:40.880Z,101733.47
2022-08-22T08:25:15.157Z,101731.69
2022-08-22T08:27:57.581Z,101725.44
2022-08-22T08:30:39.551Z,101723.69
2022-08-22T08:33:25.788Z,101722.81
2022-08-22T08:36:05.764Z,101728.22
2022-08-22T08:38:43.480Z,101728.25
2022-08-22T08:41:41.573Z,101724.69
2022-08-22T08:44:24.005Z,101730.00
2022-08-22T08:47:20.780Z,101721.00
2022-08-22T08:50:20.842Z,101722.72
2022-08-22T08:53:31.260Z,101718.13
2022-08-22T08:56:06.840Z,101727.91
2022-08-22T08:58:50.833Z,101731.38
2022-08-22T09:01:41.235Z,101719.78
2022-08-22T09:04:42.088Z,101726.06
2022-08-22T09:07:38.013Z,101723.31
2022-08-22T09:10:32.836Z,101724.97
2022-08-22T09:13:44.461Z,101724.03
2022-08-22T09:16:47.257Z,101720.34
2022-08-22T09:19:52.525Z,101730.09
2022-08-22T09:22:50.064Z,101720.38
2022-08-22T09:25:29.662Z,101724.03
2022-08-22T09:28:17.311Z,101724.13
2022-08-22T09:34:24.144Z,101708.16
2022-08-22T09:37:08.017Z,101707.34
2022-08-22T09:39:52.751Z,101706.47
2022-08-22T09:42:33.733Z,101704.72
2022-08-22T09:45:33.869Z,101701.22
2022-08-22T09:48:09.820Z,101690.50
2022-08-22T09:50:54.561Z,101696.75
2022-08-22T09:53:46.713Z,101692.28
2022-08-22T09:56:26.620Z,101683.31
2022-08-22T09:59:06.586Z,101687.78
2022-08-22T10:01:42.964Z,101691.25
2022-08-22T10:04:42.017Z,101690.34
2022-08-22T10:07:31.225Z,101687.63
2022-08-22T10:10:08.968Z,101680.41
2022-08-22T10:12:53.145Z,101692.88
2022-08-22T10:15:33.222Z,101689.28
2022-08-22T10:18:17.393Z,101688.41
2022-08-22T10:20:58.864Z,101684.00
2022-08-22T10:23:35.853Z,101677.78
2022-08-22T10:26:22.950Z,101682.22
2022-08-22T10:29:05.243Z,101679.53
2022-08-22T10:31:57.079Z,101679.50
2022-08-22T10:34:35.633Z,101678.53
2022-08-22T10:37:15.084Z,101673.97
2022-08-22T10:39:49.650Z,101673.94
2022-08-22T10:42:31.249Z,101669.34
2022-08-22T10:45:23.944Z,101672.03
2022-08-22T10:48:26.094Z,101667.59
2022-08-22T10:51:02.230Z,101670.34
2022-08-22T10:53:42.916Z,101668.56
2022-08-22T10:56:16.564Z,101668.53
2022-08-22T10:58:56.739Z,101672.13
2022-08-22T11:01:37.490Z,101665.00
2022-08-22T11:04:19.893Z,101661.38
2022-08-22T11:07:12.922Z,101659.56
2022-08-22T11:09:45.753Z,101666.72
2022-08-22T11:12:28.245Z,101664.03
2022-08-22T11:15:12.669Z,101663.13
2022-08-22T11:18:22.370Z,101663.97
2022-08-22T11:21:02.025Z,101663.06
2022-08-22T11:23:48.414Z,101660.28
2022-08-22T11:26:41.674Z,101661.13
2022-08-22T11:29:44.201Z,101656.69
2022-08-22T11:32:19.473Z,101654.91
2022-08-22T11:34:58.834Z,101655.81
2022-08-22T11:37:53.770Z,101651.28
2022-08-22T11:40:35.169Z,101644.06
2022-08-22T11:43:25.918Z,101644.13
2022-08-22T11:46:00.929Z,101637.88
2022-08-22T11:48:48.645Z,101636.03
2022-08-22T11:51:34.248Z,101626.13
2022-08-22T11:54:12.469Z,101624.34
2022-08-22T11:56:51.381Z,101627.94
2022-08-22T11:59:29.443Z,101625.28
2022-08-22T12:02:06.042Z,101617.19
2022-08-22T12:04:44.285Z,101617.09
2022-08-22T12:07:20.981Z,101617.09
2022-08-22T12:09:55.837Z,101619.72
2022-08-22T12:12:33.868Z,101619.69
2022-08-22T12:15:14.273Z,101619.50
2022-08-22T12:18:21.787Z,101606.88
2022-08-22T12:21:05.565Z,101612.19
2022-08-22T12:23:55.829Z,101618.47
2022-08-22T12:26:34.045Z,101609.47
2022-08-22T12:29:33.439Z,101609.47
2022-08-22T12:32:49.267Z,101606.81
2022-08-22T12:35:32.109Z,101605.91
2022-08-22T12:38:28.167Z,101594.31
2022-08-22T12:41:35.404Z,101601.66
2022-08-22T12:44:22.961Z,101592.81
2022-08-22T12:47:09.213Z,101597.38
2022-08-22T12:49:54.695Z,101598.31
2022-08-22T12:52:51.857Z,101592.94
2022-08-22T12:55:33.424Z,101593.81
2022-08-22T12:58:14.459Z,101592.94
2022-08-22T13:00:52.621Z,101592.94
2022-08-22T13:03:29.642Z,101590.25
2022-08-22T13:06:02.497Z,101594.69
2022-08-22T13:08:37.149Z,101585.78
2022-08-22T13:11:22.332Z,101591.22
2022-08-22T13:13:57.680Z,101586.81
2022-08-22T13:16:40.572Z,101589.53
2022-08-22T13:19:22.402Z,101587.81
2022-08-22T13:21:57.948Z,101572.69
2022-08-22T13:24:38.883Z,101594.22
2022-08-22T13:27:13.081Z,101576.34
2022-08-22T13:29:50.330Z,101582.69
2022-08-22T13:32:29.525Z,101580.09
2022-08-22T13:35:01.102Z,101575.69
2022-08-22T13:37:37.343Z,101565.03
2022-08-22T13:40:11.682Z,101562.38
2022-08-22T13:42:49.164Z,101563.28
2022-08-22T13:45:24.709Z,101559.66
2022-08-22T13:48:03.603Z,101556.06
2022-08-22T13:50:53.942Z,101559.59
2022-08-22T13:53:36.510Z,101557.81
2022-08-22T13:56:15.975Z,101559.50
2022-08-22T13:58:49.643Z,101563.97
2022-08-22T14:01:28.773Z,101564.88
2022-08-22T14:04:32.238Z,101564.97
2022-08-22T14:07:23.817Z,101548.97
2022-08-22T14:09:59.212Z,101546.34
2022-08-22T14:12:50.143Z,101551.69
2022-08-22T14:15:26.196Z,101550.78
2022-08-22T14:18:04.911Z,101555.22
2022-08-22T14:20:40.320Z,101554.34
2022-08-22T14:23:13.491Z,101541.81
2022-08-22T14:25:45.912Z,101552.59
2022-08-22T14:28:27.838Z,101548.13
2022-08-22T14:31:03.776Z,101546.34
2022-08-22T14:33:39.976Z,101549.91
2022-08-22T14:36:22.089Z,101556.13
2022-08-22T14:38:57.904Z,101549.81
2022-08-22T14:41:56.230Z,101548.91
2022-08-22T14:44:28.245Z,101541.75
2022-08-22T14:47:02.255Z,101543.53
2022-08-22T14:49:49.698Z,101549.78
2022-08-22T14:52:40.568Z,101547.16
2022-08-22T14:55:23.604Z,101538.25
2022-08-22T14:57:57.691Z,101539.19
2022-08-22T15:00:31.649Z,101533.81
2022-08-22T15:03:14.984Z,101531.97
2022-08-22T15:05:48.784Z,101526.56
2022-08-22T15:08:29.506Z,101515.75
2022-08-22T15:11:26.020Z,101525.63
2022-08-22T15:14:02.494Z,101520.28
2022-08-22T15:16:36.134Z,101525.66
2022-08-22T15:19:25.411Z,101522.06
2022-08-22T15:22:13.681Z,101522.09
2022-08-22T15:24:56.338Z,101518.59
2022-08-22T15:27:28.573Z,101522.16
2022-08-22T15:30:01.457Z,101515.94
2022-08-22T15:32:41.729Z,101510.56
2022-08-22T15:35:17.817Z,101501.63
2022-08-22T15:38:00.039Z,101511.50
2022-08-22T15:40:41.519Z,101507.94
2022-08-22T15:43:23.082Z,101499.06
2022-08-22T15:45:55.643Z,101494.56
2022-08-22T15:48:32.399Z,101499.00
2022-08-22T15:51:09.411Z,101498.09
2022-08-22T15:54:13.151Z,101492.75
2022-08-22T15:57:18.899Z,101496.38
2022-08-22T15:59:59.132Z,101487.44
2022-08-22T16:02:35.304Z,101488.34
2022-08-22T16:05:24.489Z,101491.94
2022-08-22T16:08:04.407Z,101484.84
2022-08-22T16:10:40.726Z,101491.16
2022-08-22T16:13:39.707Z,101487.63
2022-08-22T16:16:12.717Z,101484.97
2022-08-22T16:19:12.745Z,101482.31
2022-08-22T16:22:08.720Z,101491.25
2022-08-22T16:25:16.876Z,101481.44
2022-08-22T16:27:59.178Z,101485.03
2022-08-22T16:30:42.104Z,101479.69
2022-08-22T16:33:18.443Z,101479.66
2022-08-22T16:36:24.162Z,101481.38
2022-08-22T16:38:57.791Z,101478.69
2022-08-22T16:41:34.632Z,101471.56
2022-08-22T16:44:48.168Z,101471.59
2022-08-22T16:47:23.267Z,101473.41
2022-08-22T16:50:00.560Z,101472.53
2022-08-22T16:52:56.903Z,101482.38
2022-08-22T16:55:52.013Z,101470.75
2022-08-22T16:58:57.865Z,101481.53
2022-08-22T17:01:59.342Z,101484.28
2022-08-22T17:04:40.319Z,101476.25
2022-08-22T17:07:23.422Z,101472.66
2022-08-22T17:10:12.521Z,101475.34
2022-08-22T17:12:58.282Z,101463.72
2022-08-22T17:15:37.004Z,101461.94
2022-08-22T17:18:41.192Z,101464.66
2022-08-22T17:21:25.445Z,101466.44
2022-08-22T17:24:03.052Z,101471.88
2022-08-22T17:26:47.841Z,101463.84
2022-08-22T17:29:23.999Z,101463.84
2022-08-22T17:31:58.153Z,101472.78
2022-08-22T17:34:38.181Z,101474.56
2022-08-22T17:37:24.374Z,101471.00
2022-08-22T17:40:12.951Z,101488.88
2022-08-22T17:42:59.014Z,101479.06
2022-08-22T17:45:38.115Z,101480.84
2022-08-22T17:48:15.037Z,101487.09
2022-08-22T17:50:51.925Z,101490.69
2022-08-22T17:53:35.156Z,101488.00
2022-08-22T17:56:15.604Z,101486.22
2022-08-22T17:58:52.548Z,101486.25
2022-08-22T18:01:38.753Z,101495.19
2022-08-22T18:04:15.052Z,101496.97
2022-08-22T18:06:56.258Z,101497.00
2022-08-22T18:09:38.610Z,101502.34
2022-08-22T18:12:18.549Z,101501.47
2022-08-22T18:14:55.467Z,101505.06
2022-08-22T18:17:34.072Z,101514.00
2022-08-22T18:20:10.354Z,101506.88
2022-08-22T18:22:48.745Z,101506.88
2022-08-22T18:25:38.790Z,101506.88
2022-08-22T18:28:15.655Z,101510.47
2022-08-22T18:30:59.718Z,101520.28
2022-08-22T18:33:36.002Z,101521.16
2022-08-22T18:36:14.259Z,101524.72
2022-08-22T18:38:54.492Z,101522.06
2022-08-22T18:41:34.910Z,101522.97
2022-08-22T18:44:13.407Z,101521.16
2022-08-22T18:46:48.208Z,101513.09
2022-08-22T18:49:43.381Z,101511.31
2022-08-22T18:52:38.678Z,101514.91
2022-08-22T18:55:28.375Z,101515.78
2022-08-22T18:58:27.915Z,101513.13
2022-08-22T19:01:10.547Z,101514.00
2022-08-22T19:04:03.744Z,101513.13
2022-08-22T19:06:49.519Z,101521.09
2022-08-22T19:09:44.126Z,101523.78
2022-08-22T19:12:27.906Z,101522.00
2022-08-22T19:15:21.787Z,101522.00
2022-08-22T19:18:26.576Z,101523.78
2022-08-22T19:21:40.542Z,101526.44
2022-08-22T19:24:13.384Z,101517.53
2022-08-22T19:26:47.924Z,101520.19
2022-08-22T19:30:02.413Z,101525.53
2022-08-22T19:33:03.609Z,101530.00
2022-08-22T19:36:00.616Z,101535.31
2022-08-22T19:39:09.182Z,101532.66
2022-08-22T19:41:47.990Z,101533.50
2022-08-22T19:44:43.625Z,101537.09
2022-08-22T19:47:34.962Z,101525.47
2022-08-22T19:50:14.675Z,101533.47
2022-08-22T19:52:58.075Z,101536.16
2022-08-22T19:55:36.852Z,101534.38
2022-08-22T19:58:13.062Z,101532.59
2022-08-22T20:00:55.977Z,101537.03
2022-08-22T20:03:44.698Z,101537.94
2022-08-22T20:06:43.519Z,101536.97
2022-08-22T20:09:26.953Z,101531.63
2022-08-22T20:12:08.521Z,101536.09
2022-08-22T20:14:43.027Z,101538.75
2022-08-22T20:17:16.240Z,101536.97
2022-08-22T20:22:47.146Z,101536.06
2022-08-22T20:25:42.335Z,101529.81
2022-08-22T20:28:29.962Z,101529.81
2022-08-22T20:31:02.392Z,101525.38
2022-08-22T20:33:36.359Z,101532.47
2022-08-22T20:36:27.343Z,101523.56
2022-08-22T20:39:04.508Z,101532.50
2022-08-22T20:41:39.874Z,101534.28
2022-08-22T20:44:16.052Z,101526.25
2022-08-22T20:46:58.642Z,101528.03
2022-08-22T20:49:31.695Z,101524.50
2022-08-22T20:52:03.706Z,101522.72
2022-08-22T20:54:38.611Z,101521.84
2022-08-22T20:57:16.812Z,101514.69
2022-08-22T20:59:54.752Z,101520.94
2022-08-22T21:02:27.747Z,101512.00
2022-08-22T21:05:03.296Z,101515.56
2022-08-22T21:07:35.454Z,101521.78
2022-08-22T21:10:23.121Z,101514.66
2022-08-22T21:13:09.702Z,101519.97
2022-08-22T21:15:42.094Z,101519.06
2022-08-22T21:18:13.713Z,101517.28
2022-08-22T21:20:44.135Z,101516.41
2022-08-22T21:23:17.161Z,101519.94
2022-08-22T21:25:59.733Z,101521.72
2022-08-22T21:28:32.740Z,101512.78
2022-08-22T21:31:10.295Z,101508.34
2022-08-22T21:33:45.670Z,101507.41
2022-08-22T21:36:19.123Z,101507.41
2022-08-22T21:38:52.025Z,101498.47
2022-08-22T21:41:34.981Z,101503.81
2022-08-22T21:44:20.755Z,101502.00
2022-08-22T21:46:50.498Z,101497.53
2022-08-22T21:49:25.694Z,101499.28
2022-08-22T21:51:55.919Z,101500.16
2022-08-22T21:54:39.861Z,101495.69
2022-08-22T21:57:34.461Z,101502.81
2022-08-22T22:00:06.343Z,101503.72
2022-08-22T22:02:39.605Z,101499.25
2022-08-22T22:05:12.687Z,101502.84
2022-08-22T22:07:45.788Z,101500.19
2022-08-22T22:10:19.355Z,101490.38
2022-08-22T22:12:53.516Z,101493.03
2022-08-22T22:15:27.342Z,101494.81
2022-08-22T22:17:58.206Z,101493.94
2022-08-22T22:20:29.025Z,101501.06
2022-08-22T22:22:59.015Z,101494.81
2022-08-22T22:25:40.127Z,101494.81
2022-08-22T22:28:17.589Z,101495.72
2022-08-22T22:30:53.327Z,101489.47
2022-08-22T22:33:24.096Z,101490.38
2022-08-22T22:35:55.451Z,101478.81
2022-08-22T22:38:25.877Z,101485.94
2022-08-22T22:40:56.125Z,101480.59
2022-08-22T22:43:28.492Z,101484.13
2022-08-22T22:45:58.220Z,101474.34
2022-08-22T22:48:27.976Z,101477.94
2022-08-22T22:50:57.904Z,101474.34
2022-08-22T22:53:38.032Z,101477.91
2022-08-22T22:56:09.844Z,101476.09
2022-08-22T22:58:43.029Z,101475.19
2022-08-22T23:01:13.915Z,101479.63
2022-08-22T23:03:44.381Z,101479.63
2022-08-22T23:06:14.893Z,101478.75
2022-08-22T23:08:45.037Z,101480.53
2022-08-22T23:11:15.859Z,101481.41
2022-08-22T23:13:48.483Z,101481.44
2022-08-22T23:16:21.771Z,101477.88
2022-08-22T23:18:51.513Z,101479.66
2022-08-22T23:21:24.023Z,101477.88
2022-08-22T23:23:56.256Z,101480.53
2022-08-22T23:26:26.481Z,101475.19
2022-08-22T23:28:59.189Z,101478.78
2022-08-22T23:31:32.657Z,101471.66
2022-08-22T23:34:05.948Z,101482.34
2022-08-22T23:36:36.151Z,101477.03
2022-08-22T23:39:07.427Z,101485.94
2022-08-22T23:41:38.470Z,101491.28
2022-08-22T23:44:13.636Z,101485.97
2022-08-22T23:46:44.473Z,101477.06
2022-08-22T23:49:14.874Z,101482.41
2022-08-22T23:51:45.835Z,101472.59
2022-08-22T23:54:16.980Z,101469.06
2022-08-22T23:56:49.079Z,101473.50
2022-08-22T23:59:24.392Z,101469.97
